Time;durP1;ratioP1;P1;durP2;ratioP2;P2;SDS_P1;SDS_P2;PMS_P1;PMS_P2;Temp;Humidity;BMP_temperature;BMP_pressure;BME280_temperature;BME280_humidity;BME280_pressure;Samples;Min_cycle;Max_cycle;Signal;HPM_P1;HPM_P2
2022/11/30 00:00:51;;;;;;;35.50;19.33;;;;;;;9.59;88.28;100731.19;5010487;28;20876;-76
2022/11/30 00:03:17;;;;;;;47.73;20.37;;;;;;;9.59;88.69;100735.75;5007530;28;20528;-76
2022/11/30 00:05:42;;;;;;;37.03;20.95;;;;;;;9.59;88.47;100731.19;5006364;28;20877;-76
2022/11/30 00:08:07;;;;;;;40.63;21.53;;;;;;;9.59;88.19;100743.88;4997093;28;20496;-76
2022/11/30 00:10:33;;;;;;;35.47;20.30;;;;;;;9.58;88.32;100747.66;4998876;28;20414;-76
2022/11/30 00:12:59;;;;;;;35.75;19.23;;;;;;;9.59;88.63;100739.28;5009534;28;20389;-76
2022/11/30 00:15:24;;;;;;;36.70;20.57;;;;;;;9.56;88.46;100738.94;5009601;28;20430;-76
2022/11/30 00:17:55;;;;;;;36.07;20.03;;;;;;;9.60;88.71;100743.66;4999754;28;20413;-76
2022/11/30 00:20:20;;;;;;;36.40;19.42;;;;;;;9.63;88.30;100736.94;4997466;28;20916;-76
2022/11/30 00:22:45;;;;;;;37.13;21.40;;;;;;;9.65;88.58;100743.78;4999126;28;20397;-76
2022/11/30 00:25:10;;;;;;;37.77;21.10;;;;;;;9.66;88.16;100733.78;4996141;28;20811;-76
2022/11/30 00:27:36;;;;;;;38.53;20.07;;;;;;;9.66;88.29;100737.31;5001780;28;20422;-76
2022/11/30 00:30:01;;;;;;;36.07;20.13;;;;;;;9.62;88.65;100738.84;4999276;28;20497;-76
2022/11/30 00:32:27;;;;;;;35.78;20.23;;;;;;;9.58;88.76;100728.72;5004607;28;20477;-76
2022/11/30 00:34:53;;;;;;;38.22;20.98;;;;;;;9.62;88.52;100732.59;4999550;28;20405;-76
2022/11/30 00:37:19;;;;;;;37.40;21.45;;;;;;;9.61;88.48;100725.56;5008314;28;20409;-76
2022/11/30 00:39:44;;;;;;;34.60;19.30;;;;;;;9.61;88.46;100731.78;5003167;28;20406;-76
2022/11/30 00:42:09;;;;;;;37.23;20.43;;;;;;;9.61;88.28;100729.09;5005192;28;20410;-76
2022/11/30 00:44:34;;;;;;;32.47;19.60;;;;;;;9.60;88.29;100732.84;5004124;28;20413;-76
2022/11/30 00:47:00;;;;;;;36.80;20.20;;;;;;;9.62;88.21;100730.72;5009681;28;20892;-76
2022/11/30 00:49:25;;;;;;;35.20;19.37;;;;;;;9.60;88.51;100723.88;5012227;28;20395;-76
2022/11/30 00:51:51;;;;;;;34.23;19.23;;;;;;;9.61;88.43;100739.06;5007990;28;20405;-76
2022/11/30 00:54:16;;;;;;;33.55;19.08;;;;;;;9.61;88.43;100741.78;5008706;28;20444;-76
2022/11/30 00:56:42;;;;;;;41.75;21.02;;;;;;;9.62;88.36;100743.41;5006226;28;20509;-76
2022/11/30 00:59:07;;;;;;;41.33;20.67;;;;;;;9.59;87.99;100743.88;5003467;28;20772;-76
2022/11/30 01:01:33;;;;;;;36.73;20.57;;;;;;;9.57;88.17;100741.41;5002532;28;20491;-75
2022/11/30 01:03:58;;;;;;;38.40;21.20;;;;;;;9.62;88.24;100746.13;5027465;28;20413;-76
2022/11/30 01:06:23;;;;;;;38.23;19.83;;;;;;;9.64;88.21;100744.84;5009454;28;20416;-76
2022/11/30 01:08:49;;;;;;;42.07;21.53;;;;;;;9.64;88.16;100742.16;5012103;28;20891;-76
2022/11/30 01:11:26;;;;;;;37.93;20.07;;;;;;;9.63;88.23;100753.19;5011609;28;20904;-76
2022/11/30 01:13:52;;;;;;;41.90;20.88;;;;;;;9.61;88.35;100750.72;5000939;28;20401;-76
2022/11/30 01:16:22;;;;;;;35.55;20.58;;;;;;;9.63;88.05;100747.78;5008606;28;20386;-76
2022/11/30 01:18:48;;;;;;;40.17;20.92;;;;;;;9.65;87.88;100745.69;5006252;28;20451;-76
2022/11/30 01:21:16;;;;;;;45.03;21.15;;;;;;;9.65;87.87;100745.69;5011889;28;20397;-76
2022/11/30 01:23:42;;;;;;;46.85;24.75;;;;;;;9.65;87.79;100746.47;5011528;28;20920;-76
2022/11/30 01:26:09;;;;;;;39.80;21.17;;;;;;;9.64;88.12;100752.16;5007885;28;20401;-76
2022/11/30 01:28:34;;;;;;;42.80;21.17;;;;;;;9.65;88.19;100751.91;5002548;28;20423;-76
2022/11/30 01:31:08;;;;;;;36.77;19.63;;;;;;;9.64;88.05;100747.56;5009885;28;20389;-76
2022/11/30 01:33:34;;;;;;;38.92;19.83;;;;;;;9.64;88.03;100750.25;5004074;28;20407;-76
2022/11/30 01:36:11;;;;;;;41.88;21.05;;;;;;;9.65;87.75;100748.38;5004098;28;20480;-76
2022/11/30 01:38:39;;;;;;;42.40;20.90;;;;;;;9.65;87.99;100759.22;4998739;28;20554;-76
2022/11/30 01:41:05;;;;;;;41.42;20.83;;;;;;;9.64;87.67;100752.97;5006316;28;20397;-76
2022/11/30 01:43:42;;;;;;;35.40;20.05;;;;;;;9.66;87.92;100756.25;5011610;28;20397;-76
2022/11/30 01:46:16;;;;;;;42.60;19.73;;;;;;;9.65;87.90;100749.19;5011537;28;20554;-76
2022/11/30 01:48:42;;;;;;;43.30;20.42;;;;;;;9.63;87.68;100753.19;5005214;28;20420;-76
2022/11/30 01:51:07;;;;;;;46.43;20.07;;;;;;;9.63;88.07;100753.19;5007785;28;20734;-76
2022/11/30 01:53:32;;;;;;;46.03;20.20;;;;;;;9.62;87.97;100760.47;4998339;28;20923;-76
2022/11/30 01:55:58;;;;;;;49.60;20.77;;;;;;;9.62;87.65;100755.06;5009448;28;20401;-76
2022/11/30 01:58:26;;;;;;;48.47;20.60;;;;;;;9.61;87.72;100763.44;5001119;28;20426;-76
2022/11/30 02:00:51;;;;;;;49.55;20.20;;;;;;;9.61;87.78;100763.44;5009057;28;20860;-76
2022/11/30 02:03:33;;;;;;;54.10;20.45;;;;;;;9.56;87.59;100761.41;4997295;28;20412;-75
2022/11/30 02:05:59;;;;;;;50.60;21.42;;;;;;;9.54;87.91;100763.53;4993837;28;20417;-76
2022/11/30 02:08:25;;;;;;;49.63;19.67;;;;;;;9.55;87.94;100764.34;4992060;28;20413;-76
2022/11/30 02:10:54;;;;;;;51.83;20.33;;;;;;;9.54;87.53;100768.13;5000659;28;20417;-76
2022/11/30 02:13:44;;;;;;;48.45;19.60;;;;;;;9.57;87.92;100765.78;4994992;28;20409;-75
2022/11/30 02:16:21;;;;;;;47.50;19.47;;;;;;;9.54;87.72;100766.22;5005720;28;20392;-76
2022/11/30 02:19:14;;;;;;;52.72;20.38;;;;;;;9.54;87.58;100770.81;5008384;28;20507;-75
2022/11/30 02:22:07;;;;;;;47.80;20.10;;;;;;;9.52;87.31;100765.63;4994821;28;20406;-76
2022/11/30 02:24:59;;;;;;;57.30;21.45;;;;;;;9.53;87.31;100759.16;5009220;28;20416;-76
2022/11/30 02:27:40;;;;;;;53.78;21.15;;;;;;;9.54;87.41;100765.41;4997164;28;20939;-76
2022/11/30 02:30:23;;;;;;;53.17;20.80;;;;;;;9.51;87.25;100764.00;5006456;28;20436;-75
2022/11/30 02:33:07;;;;;;;59.77;21.93;;;;;;;9.51;87.49;100761.28;5004868;28;20459;-76
2022/11/30 02:35:39;;;;;;;50.10;21.05;;;;;;;9.46;87.12;100758.44;5003840;28;20421;-76
2022/11/30 02:38:04;;;;;;;44.03;20.25;;;;;;;9.44;87.63;100762.44;5007931;28;20418;-76
2022/11/30 02:40:30;;;;;;;55.33;19.90;;;;;;;9.44;87.61;100757.84;5013775;28;20895;-76
2022/11/30 02:42:58;;;;;;;50.20;21.83;;;;;;;9.44;87.54;100760.56;5011606;28;20405;-76
2022/11/30 02:45:45;;;;;;;52.85;21.15;;;;;;;9.44;87.44;100762.44;5003168;28;20429;-76
2022/11/30 02:48:16;;;;;;;54.67;22.17;;;;;;;9.44;87.27;100763.25;4999819;28;20488;-76
2022/11/30 02:50:49;;;;;;;52.10;21.13;;;;;;;9.43;87.37;100763.47;5001601;28;20433;-76
2022/11/30 02:53:14;;;;;;;57.33;22.67;;;;;;;9.44;87.29;100759.72;5014475;28;20397;-76
2022/11/30 02:55:40;;;;;;;50.73;21.77;;;;;;;9.45;87.24;100769.50;5009503;28;20418;-76
2022/11/30 02:58:05;;;;;;;46.87;19.90;;;;;;;9.43;87.37;100763.47;5001210;28;20883;-76
2022/11/30 03:00:31;;;;;;;61.78;22.27;;;;;;;9.43;87.32;100764.31;5010764;28;20495;-76
2022/11/30 03:02:56;;;;;;;58.03;21.88;;;;;;;9.44;87.72;100760.56;5004521;28;20402;-75
2022/11/30 03:05:21;;;;;;;54.20;21.10;;;;;;;9.45;87.46;100764.88;5006785;28;20409;-76
2022/11/30 03:07:46;;;;;;;48.42;19.83;;;;;;;9.45;87.79;100764.88;4995114;28;20422;-76
2022/11/30 03:10:12;;;;;;;49.80;19.67;;;;;;;9.46;87.32;100771.97;5010122;28;20400;-76
2022/11/30 03:12:37;;;;;;;51.60;20.30;;;;;;;9.44;87.47;100768.66;5014242;28;20384;-76
2022/11/30 03:15:04;;;;;;;52.27;21.37;;;;;;;9.44;87.32;100773.25;5014018;28;20771;-76
2022/11/30 03:17:29;;;;;;;49.67;19.83;;;;;;;9.46;87.64;100774.66;5001705;28;20772;-75
2022/11/30 03:19:54;;;;;;;48.35;19.73;;;;;;;9.45;87.67;100774.91;5013762;28;20385;-76
2022/11/30 03:22:20;;;;;;;56.47;21.67;;;;;;;9.44;87.42;100767.84;5010680;28;20451;-76
2022/11/30 03:24:45;;;;;;;49.87;21.37;;;;;;;9.45;87.19;100774.91;5009280;28;20399;-76
2022/11/30 03:27:11;;;;;;;52.23;20.37;;;;;;;9.46;87.44;100771.97;5005254;28;20496;-76
2022/11/30 03:29:37;;;;;;;51.78;20.92;;;;;;;9.47;87.23;100770.09;5013655;28;20423;-75
2022/11/30 03:32:02;;;;;;;50.40;22.43;;;;;;;9.47;87.43;100770.09;5006554;28;20904;-76
2022/11/30 03:34:27;;;;;;;49.97;21.90;;;;;;;9.48;87.27;100766.34;5003775;28;20413;-76
2022/11/30 03:36:53;;;;;;;51.83;21.67;;;;;;;9.46;86.99;100768.41;4999131;28;20858;-75
2022/11/30 03:39:18;;;;;;;53.38;21.98;;;;;;;9.47;87.09;100772.78;5001237;28;20505;-76
2022/11/30 03:41:44;;;;;;;51.70;21.60;;;;;;;9.47;86.92;100770.09;5009052;28;20443;-76
2022/11/30 03:44:09;;;;;;;43.53;19.45;;;;;;;9.48;87.11;100775.28;5013251;28;20412;-76
2022/11/30 03:46:34;;;;;;;50.63;21.10;;;;;;;9.48;87.19;100767.16;5004468;28;20415;-76
2022/11/30 03:49:00;;;;;;;50.45;21.90;;;;;;;9.47;87.23;100772.78;5009889;28;20412;-76
2022/11/30 03:51:25;;;;;;;52.03;20.47;;;;;;;9.46;86.94;100776.53;5000528;28;20511;-76
2022/11/30 03:53:50;;;;;;;48.17;20.67;;;;;;;9.44;86.99;100771.38;5013344;28;20907;-76
2022/11/30 03:56:16;;;;;;;47.87;20.20;;;;;;;9.43;87.18;100766.19;5008751;28;20410;-76
2022/11/30 03:58:42;;;;;;;47.90;20.57;;;;;;;9.43;86.77;100768.88;5009653;28;20420;-76
2022/11/30 04:01:12;;;;;;;46.83;19.87;;;;;;;9.44;87.14;100770.53;4997972;28;20427;-76
2022/11/30 04:03:38;;;;;;;51.13;20.17;;;;;;;9.44;87.04;100771.38;5011332;28;20410;-75
2022/11/30 04:06:06;;;;;;;45.10;19.35;;;;;;;9.44;86.83;100767.84;5010405;28;20389;-76
2022/11/30 04:08:31;;;;;;;39.08;18.85;;;;;;;9.42;86.87;100770.75;4999841;28;20425;-76
2022/11/30 04:10:59;;;;;;;45.35;20.00;;;;;;;9.43;86.88;100777.00;4996565;28;20400;-76
2022/11/30 04:13:26;;;;;;;45.17;19.90;;;;;;;9.44;86.83;100773.25;5000812;28;20592;-76
2022/11/30 04:15:53;;;;;;;39.92;19.35;;;;;;;9.44;86.83;100775.94;5012090;28;20393;-76
2022/11/30 04:18:19;;;;;;;43.00;19.37;;;;;;;9.45;86.86;100772.19;5008084;28;20416;-76
2022/11/30 04:20:45;;;;;;;45.67;19.85;;;;;;;9.46;86.60;100773.84;5012812;28;20400;-76
2022/11/30 04:23:12;;;;;;;49.60;20.10;;;;;;;9.47;86.78;100778.19;5011910;28;20389;-76
2022/11/30 04:25:38;;;;;;;48.08;19.30;;;;;;;9.44;86.79;100782.19;5004276;28;20517;-76
2022/11/30 04:28:03;;;;;;;43.80;20.20;;;;;;;9.42;86.98;100773.47;5007683;28;20884;-76
2022/11/30 04:30:29;;;;;;;46.03;20.23;;;;;;;9.44;86.57;100770.53;5012119;28;20463;-76
2022/11/30 04:32:54;;;;;;;48.47;19.25;;;;;;;9.43;86.71;100780.53;4994904;28;20420;-76
2022/11/30 04:35:19;;;;;;;39.20;18.50;;;;;;;9.44;86.93;100778.66;5001381;28;20416;-75
2022/11/30 04:37:45;;;;;;;42.97;18.83;;;;;;;9.43;86.87;100769.72;5006098;28;20529;-76
2022/11/30 04:40:11;;;;;;;45.93;19.87;;;;;;;9.42;87.01;100769.97;5010231;28;20914;-76
2022/11/30 04:42:36;;;;;;;43.33;19.65;;;;;;;9.44;87.10;100775.94;5000085;28;20412;-76
2022/11/30 04:45:02;;;;;;;44.07;19.03;;;;;;;9.44;86.86;100779.50;5005070;28;20484;-76
2022/11/30 04:47:27;;;;;;;43.73;19.60;;;;;;;9.44;86.93;100778.66;5003875;28;20879;-76
2022/11/30 04:49:53;;;;;;;46.60;20.00;;;;;;;9.44;86.53;100782.19;5008664;28;20408;-76
2022/11/30 04:52:18;;;;;;;42.43;18.57;;;;;;;9.43;86.99;100779.69;4998377;28;20427;-76
2022/11/30 04:54:43;;;;;;;38.50;17.00;;;;;;;9.42;86.88;100776.16;4999014;28;20781;-76
2022/11/30 04:57:09;;;;;;;40.60;18.53;;;;;;;9.42;86.85;100770.75;5004713;28;20491;-76
2022/11/30 04:59:34;;;;;;;42.60;19.03;;;;;;;9.43;86.98;100775.13;5000161;28;20913;-76
2022/11/30 05:01:59;;;;;;;38.37;18.23;;;;;;;9.45;86.92;100780.31;5008370;28;20555;-76
2022/11/30 05:04:24;;;;;;;41.40;18.87;;;;;;;9.44;86.67;100775.94;5001843;28;20405;-76
2022/11/30 05:06:50;;;;;;;41.67;18.87;;;;;;;9.45;86.83;100774.91;5009967;28;20405;-76
2022/11/30 05:09:15;;;;;;;40.13;17.63;;;;;;;9.45;86.74;100772.19;5003149;28;20516;-76
2022/11/30 05:11:40;;;;;;;36.37;17.93;;;;;;;9.44;86.72;100781.38;4995846;28;20406;-76
2022/11/30 05:14:06;;;;;;;39.70;17.63;;;;;;;9.46;86.72;100780.06;4999658;28;20400;-76
2022/11/30 05:16:31;;;;;;;40.77;18.67;;;;;;;9.45;86.82;100783.03;4999105;28;20465;-76
2022/11/30 05:18:56;;;;;;;38.50;17.77;;;;;;;9.44;87.05;100782.19;4999739;28;20834;-76
2022/11/30 05:21:21;;;;;;;41.53;17.20;;;;;;;9.43;87.07;100783.25;5008877;28;20388;-76
2022/11/30 05:23:47;;;;;;;37.80;18.23;;;;;;;9.45;86.97;100778.41;5010949;28;20405;-76
2022/11/30 05:26:16;;;;;;;37.67;17.73;;;;;;;9.47;87.02;100784.44;5011299;28;20868;-76
2022/11/30 05:28:41;;;;;;;40.47;18.35;;;;;;;9.47;86.65;100784.44;5010907;28;20405;-76
2022/11/30 05:31:06;;;;;;;41.17;18.90;;;;;;;9.46;86.69;100787.34;5007433;28;20397;-76
2022/11/30 05:33:32;;;;;;;39.57;18.13;;;;;;;9.46;86.69;100793.59;4998524;28;20416;-76
2022/11/30 05:35:57;;;;;;;41.37;19.50;;;;;;;9.46;86.62;100790.91;4998533;28;20900;-76
2022/11/30 05:38:23;;;;;;;39.23;18.80;;;;;;;9.43;86.97;100794.06;4996609;28;20426;-76
2022/11/30 05:40:48;;;;;;;42.95;19.15;;;;;;;9.45;86.83;100791.94;5002144;28;20785;-76
2022/11/30 05:43:14;;;;;;;41.77;18.97;;;;;;;9.45;86.72;100796.56;5010093;28;20401;-75
2022/11/30 05:45:39;;;;;;;38.50;18.43;;;;;;;9.45;86.83;100794.66;4995482;28;20411;-75
2022/11/30 05:48:05;;;;;;;43.07;18.30;;;;;;;9.45;87.07;100800.06;5001824;28;20412;-76
2022/11/30 05:50:30;;;;;;;38.30;17.77;;;;;;;9.46;86.93;100793.59;5004873;28;20514;-76
2022/11/30 05:52:59;;;;;;;36.90;18.17;;;;;;;9.47;87.01;100808.78;5007819;28;20802;-76
2022/11/30 05:55:26;;;;;;;43.03;18.77;;;;;;;9.46;87.00;100793.59;5010040;28;20969;-76
2022/11/30 05:57:52;;;;;;;40.08;17.92;;;;;;;9.46;86.91;100799.00;5011221;28;20448;-76
2022/11/30 06:00:18;;;;;;;45.35;19.70;;;;;;;9.44;87.03;100797.59;5009760;28;20393;-75
2022/11/30 06:02:43;;;;;;;39.25;17.70;;;;;;;9.45;86.81;100793.84;5002688;28;20404;-76
2022/11/30 06:05:08;;;;;;;37.73;18.47;;;;;;;9.46;86.70;100799.00;5011369;28;20401;-76
2022/11/30 06:07:34;;;;;;;31.30;17.57;;;;;;;9.47;86.99;100794.44;5009538;28;20412;-76
2022/11/30 06:09:59;;;;;;;30.63;16.33;;;;;;;9.46;86.80;100795.47;5002405;28;20399;-76
2022/11/30 06:12:24;;;;;;;28.23;15.50;;;;;;;9.47;86.56;100797.13;5005301;28;20411;-75
2022/11/30 06:14:50;;;;;;;29.58;16.17;;;;;;;9.48;86.43;100798.78;4999174;28;20492;-75
2022/11/30 06:17:16;;;;;;;27.63;15.67;;;;;;;9.45;86.64;100791.13;5010735;28;20397;-76
2022/11/30 06:19:41;;;;;;;26.88;15.27;;;;;;;9.43;86.44;100787.81;4998431;28;20406;-76
2022/11/30 06:22:07;;;;;;;29.17;15.40;;;;;;;9.43;86.75;100791.34;5005135;28;20488;-75
2022/11/30 06:24:32;;;;;;;28.25;15.77;;;;;;;9.43;86.65;100796.75;5006428;28;20400;-76
2022/11/30 06:26:57;;;;;;;27.77;16.13;;;;;;;9.41;86.61;100798.88;5010360;28;20948;-75
2022/11/30 06:29:22;;;;;;;25.70;15.65;;;;;;;9.44;86.23;100792.19;4998907;28;20444;-76
2022/11/30 06:31:48;;;;;;;27.40;16.07;;;;;;;9.44;86.32;100797.59;5000883;28;20413;-75
2022/11/30 06:34:13;;;;;;;27.92;15.82;;;;;;;9.44;86.20;100789.47;5010228;28;20540;-76
2022/11/30 06:36:38;;;;;;;27.07;16.10;;;;;;;9.43;86.24;100790.53;5008834;28;20410;-75
2022/11/30 06:39:03;;;;;;;25.65;15.32;;;;;;;9.42;85.79;100789.69;5009602;28;20753;-75
2022/11/30 06:41:29;;;;;;;25.07;15.57;;;;;;;9.41;85.94;100787.22;5005187;28;20399;-75
2022/11/30 06:43:54;;;;;;;26.57;15.33;;;;;;;9.37;85.77;100792.28;5011015;28;20413;-75
2022/11/30 06:46:21;;;;;;;26.87;16.03;;;;;;;9.35;85.60;100797.91;5013642;28;20482;-75
2022/11/30 06:48:48;;;;;;;22.98;14.77;;;;;;;9.34;85.40;100796.28;5008701;28;20405;-75
2022/11/30 06:51:14;;;;;;;24.60;14.60;;;;;;;9.28;85.74;100799.91;5014505;28;20389;-75
2022/11/30 06:53:43;;;;;;;22.55;13.82;;;;;;;9.22;85.73;100798.06;5013793;28;20404;-75
2022/11/30 06:56:08;;;;;;;22.00;13.30;;;;;;;9.24;85.59;100793.28;5012726;28;20405;-75
2022/11/30 06:58:34;;;;;;;24.88;14.07;;;;;;;9.25;85.52;100800.31;5011898;28;20826;-76
2022/11/30 07:00:59;;;;;;;19.48;13.10;;;;;;;9.26;85.74;100810.09;5013119;28;20424;-76
2022/11/30 07:03:25;;;;;;;19.97;13.03;;;;;;;9.27;86.00;100808.22;4998934;28;20394;-76
2022/11/30 07:05:50;;;;;;;20.70;12.73;;;;;;;9.27;85.85;100800.09;5001221;28;20777;-76
2022/11/30 07:08:16;;;;;;;19.42;13.27;;;;;;;9.30;85.88;100810.47;5005211;28;20429;-76
2022/11/30 07:10:44;;;;;;;18.00;12.55;;;;;;;9.29;85.63;100809.63;5006876;28;21129;-77
2022/11/30 07:13:10;;;;;;;18.25;12.40;;;;;;;9.31;85.81;100812.13;5004846;28;20423;-76
2022/11/30 07:15:36;;;;;;;20.00;12.63;;;;;;;9.31;85.50;100812.13;5000248;28;20533;-76
2022/11/30 07:18:01;;;;;;;24.35;13.70;;;;;;;9.30;85.83;100814.00;5008584;28;20979;-76
2022/11/30 07:20:27;;;;;;;17.70;12.73;;;;;;;9.31;85.64;100809.41;5001257;28;20415;-76
2022/11/30 07:22:55;;;;;;;15.57;11.50;;;;;;;9.30;85.29;100816.69;4998309;28;20425;-76
2022/11/30 07:28:07;;;;;;;19.08;12.18;;;;;;;9.31;85.32;100812.13;5004959;28;20402;-76
2022/11/30 07:30:32;;;;;;;21.20;12.65;;;;;;;9.28;85.12;100810.72;4994959;28;20845;-76
2022/11/30 07:32:57;;;;;;;20.70;12.63;;;;;;;9.30;85.19;100816.69;5003900;28;20451;-76
2022/11/30 07:35:23;;;;;;;18.90;12.67;;;;;;;9.29;85.13;100820.44;5009497;28;20411;-76
2022/11/30 07:37:48;;;;;;;18.50;12.33;;;;;;;9.30;84.94;100822.13;5004125;28;20421;-76
2022/11/30 07:40:13;;;;;;;16.73;12.23;;;;;;;9.30;85.39;100821.28;5013777;28;20388;-76
2022/11/30 07:42:39;;;;;;;16.83;12.15;;;;;;;9.30;85.25;100824.81;5010538;28;20741;-76
2022/11/30 07:45:05;;;;;;;19.83;12.77;;;;;;;9.31;84.91;100831.06;5009259;28;20958;-76
2022/11/30 07:47:30;;;;;;;19.93;13.93;;;;;;;9.31;84.92;100822.94;5000022;28;20543;-76
2022/11/30 07:49:56;;;;;;;19.77;14.07;;;;;;;9.30;85.01;100827.53;5009832;28;20437;-76
2022/11/30 07:52:21;;;;;;;17.55;12.52;;;;;;;9.27;84.62;100822.56;5002946;28;20473;-76
2022/11/30 07:54:47;;;;;;;18.23;12.85;;;;;;;9.31;84.93;100831.06;5005878;28;20439;-76
2022/11/30 07:57:12;;;;;;;21.87;12.63;;;;;;;9.28;84.56;100826.94;4999802;28;20791;-76
2022/11/30 07:59:40;;;;;;;20.87;14.07;;;;;;;9.26;84.44;100828.19;5002448;28;20430;-76
2022/11/30 08:02:05;;;;;;;17.08;12.50;;;;;;;9.25;84.92;100837.38;5005936;28;20776;-76
2022/11/30 08:04:31;;;;;;;17.42;12.32;;;;;;;9.28;84.59;100834.22;4999609;28;20920;-76
2022/11/30 08:06:56;;;;;;;17.90;12.77;;;;;;;9.29;84.51;100836.69;5010857;28;20397;-76
2022/11/30 08:09:21;;;;;;;18.90;12.67;;;;;;;9.31;84.44;100833.75;4998728;28;20771;-76
2022/11/30 08:11:47;;;;;;;19.55;13.52;;;;;;;9.33;84.55;100834.34;5004911;28;20424;-76
2022/11/30 08:14:13;;;;;;;19.48;12.60;;;;;;;9.35;84.35;100840.38;5012147;28;20404;-76
2022/11/30 08:16:38;;;;;;;18.03;12.90;;;;;;;9.37;84.16;100839.09;5004349;28;20465;-76
2022/11/30 08:19:03;;;;;;;20.27;13.37;;;;;;;9.38;84.20;100835.31;4998258;28;20437;-76
2022/11/30 08:21:31;;;;;;;17.10;12.30;;;;;;;9.41;84.20;100834.06;4997515;28;20402;-76
2022/11/30 08:23:56;;;;;;;17.98;12.52;;;;;;;9.43;84.14;100831.94;4994966;28;20391;-76
2022/11/30 08:26:25;;;;;;;17.77;12.65;;;;;;;9.44;83.92;100835.47;5009049;28;20420;-76
2022/11/30 08:28:51;;;;;;;17.92;12.35;;;;;;;9.45;83.85;100837.13;5004299;28;20450;-76
2022/11/30 08:31:31;;;;;;;17.63;12.17;;;;;;;9.48;83.87;100842.06;5006864;28;20440;-76
2022/11/30 08:34:03;;;;;;;17.13;12.63;;;;;;;9.47;83.67;100840.41;4999904;28;20438;-76
2022/11/30 08:36:29;;;;;;;18.20;12.85;;;;;;;9.47;83.83;100843.13;4998643;28;20411;-76
2022/11/30 08:38:59;;;;;;;18.35;13.02;;;;;;;9.49;83.51;100836.41;4993788;28;20422;-76
2022/11/30 08:41:25;;;;;;;17.50;13.18;;;;;;;9.52;83.46;100840.53;5006269;28;20405;-76
2022/11/30 08:43:57;;;;;;;19.23;12.75;;;;;;;9.54;83.77;100844.69;4998503;28;20438;-77
2022/11/30 08:46:23;;;;;;;22.27;13.30;;;;;;;9.51;83.70;100858.69;5007912;28;20430;-75
2022/11/30 08:48:49;;;;;;;20.60;14.10;;;;;;;9.54;83.68;100854.69;5002816;28;20396;-75
2022/11/30 08:51:16;;;;;;;20.67;14.00;;;;;;;9.53;83.53;100853.84;5002789;28;20401;-75
2022/11/30 08:53:42;;;;;;;23.38;13.60;;;;;;;9.52;83.61;100854.06;5007209;28;20425;-75
2022/11/30 08:56:19;;;;;;;22.27;15.20;;;;;;;9.52;83.34;100857.59;4997834;28;20401;-76
2022/11/30 08:58:45;;;;;;;35.85;16.10;;;;;;;9.53;83.18;100864.69;5001950;28;20483;-75
2022/11/30 09:01:17;;;;;;;37.13;15.52;;;;;;;9.54;83.23;100863.63;5007594;28;20398;-75
2022/11/30 09:03:43;;;;;;;51.00;17.83;;;;;;;9.57;83.06;100863.19;5008938;28;20399;-75
2022/11/30 09:06:12;;;;;;;39.17;16.67;;;;;;;9.58;83.17;100862.09;5006875;28;20413;-77
2022/11/30 09:08:38;;;;;;;42.03;15.90;;;;;;;9.61;83.18;100868.97;5013666;28;20433;-76
2022/11/30 09:11:12;;;;;;;23.58;13.00;;;;;;;9.61;83.06;100869.78;5008724;28;20500;-76
2022/11/30 09:13:38;;;;;;;24.67;12.93;;;;;;;9.59;83.13;100876.47;5019590;28;20443;-76
2022/11/30 09:16:04;;;;;;;24.13;13.73;;;;;;;9.59;83.28;100873.75;5009151;28;20776;-77
2022/11/30 09:18:31;;;;;;;24.60;13.55;;;;;;;9.59;82.87;100877.28;5005244;28;20499;-76
2022/11/30 09:21:01;;;;;;;23.88;13.40;;;;;;;9.63;83.06;100883.06;5001269;28;20893;-76
2022/11/30 09:23:27;;;;;;;25.73;14.10;;;;;;;9.60;83.08;100887.06;5005841;28;20415;-76
2022/11/30 09:26:01;;;;;;;26.40;13.80;;;;;;;9.64;82.94;100893.69;5008536;28;20458;-76
2022/11/30 09:28:29;;;;;;;22.80;14.13;;;;;;;9.66;82.90;100890.72;5010951;28;20780;-76
2022/11/30 09:31:03;;;;;;;23.52;12.77;;;;;;;9.66;82.66;100891.56;4998535;28;20406;-75
2022/11/30 09:33:29;;;;;;;20.00;12.57;;;;;;;9.66;82.89;100898.84;4998022;28;20443;-76
2022/11/30 09:35:56;;;;;;;29.85;14.25;;;;;;;9.66;82.75;100888.84;5002640;28;20863;-76
2022/11/30 09:38:21;;;;;;;22.52;12.02;;;;;;;9.65;82.36;100895.31;5024082;28;20470;-76
2022/11/30 09:40:53;;;;;;;24.93;13.63;;;;;;;9.64;82.19;100892.84;4998320;28;20414;-76
2022/11/30 09:43:41;;;;;;;28.77;13.60;;;;;;;9.65;82.14;100894.50;5007361;28;20396;-76
2022/11/30 09:46:08;;;;;;;26.17;13.88;;;;;;;9.62;82.18;100889.53;5000870;28;20420;-76
2022/11/30 09:48:55;;;;;;;19.58;12.07;;;;;;;9.61;82.37;100887.91;5005927;28;20895;-76
2022/11/30 09:51:30;;;;;;;22.50;12.93;;;;;;;9.61;82.45;100887.91;5003753;28;20437;-76
2022/11/30 09:54:01;;;;;;;17.02;11.85;;;;;;;9.64;82.19;100887.44;5005639;28;20410;-76
2022/11/30 09:56:31;;;;;;;21.60;13.23;;;;;;;9.64;82.22;100890.97;4996102;28;20431;-76
2022/11/30 09:59:21;;;;;;;21.10;12.83;;;;;;;9.68;81.79;100878.63;5001827;28;20799;-75
2022/11/30 10:01:47;;;;;;;16.08;12.75;;;;;;;9.68;81.76;100889.44;5004179;28;20399;-76
2022/11/30 10:04:25;;;;;;;18.17;11.77;;;;;;;9.67;82.14;100892.41;5012861;28;20399;-76
2022/11/30 10:07:15;;;;;;;13.60;10.65;;;;;;;9.68;81.89;100885.94;5003775;28;20405;-76
2022/11/30 10:10:07;;;;;;;17.20;11.00;;;;;;;9.76;81.81;100885.59;5004781;28;20394;-75
2022/11/30 10:12:44;;;;;;;13.75;10.70;;;;;;;9.76;81.33;100889.16;5011261;28;20400;-75
2022/11/30 10:15:40;;;;;;;15.55;11.57;;;;;;;9.77;81.63;100879.16;5006502;28;20398;-75
2022/11/30 10:18:19;;;;;;;15.77;11.85;;;;;;;9.77;80.95;100881.84;5000527;28;20414;-75
2022/11/30 10:20:53;;;;;;;15.02;10.95;;;;;;;9.79;81.29;100887.84;5009840;28;20404;-76
2022/11/30 10:23:36;;;;;;;15.00;11.57;;;;;;;9.78;81.22;100878.91;4999907;28;20445;-77
2022/11/30 10:26:15;;;;;;;14.68;10.95;;;;;;;9.83;81.46;100870.09;5014444;28;20411;-75
2022/11/30 10:28:55;;;;;;;15.90;10.63;;;;;;;9.85;81.46;100870.69;5012041;28;20914;-75
2022/11/30 10:31:35;;;;;;;16.77;11.18;;;;;;;9.87;80.96;100876.72;5007581;28;20400;-75
2022/11/30 10:34:14;;;;;;;16.17;11.23;;;;;;;9.84;81.08;100869.88;5003125;28;20418;-76
2022/11/30 10:36:45;;;;;;;14.32;10.60;;;;;;;9.89;81.16;100866.47;5008532;28;20420;-76
2022/11/30 10:39:23;;;;;;;17.27;12.02;;;;;;;9.94;80.95;100863.91;5004717;28;20471;-76
2022/11/30 10:41:55;;;;;;;15.57;11.23;;;;;;;9.97;80.87;100866.16;5010049;28;20397;-76
2022/11/30 10:44:32;;;;;;;16.08;11.50;;;;;;;9.98;80.66;100856.16;5011965;28;20424;-76
2022/11/30 10:47:20;;;;;;;18.15;11.90;;;;;;;9.97;80.73;100862.63;5014732;28;20385;-76
2022/11/30 10:49:51;;;;;;;16.15;11.13;;;;;;;9.97;80.75;100858.03;5013677;28;20407;-76
2022/11/30 10:52:23;;;;;;;19.13;11.73;;;;;;;9.95;80.76;100849.31;5013697;28;20943;-76
2022/11/30 10:54:52;;;;;;;15.73;10.63;;;;;;;9.98;80.42;100856.16;5013564;28;20535;-76
2022/11/30 10:57:17;;;;;;;16.25;10.68;;;;;;;9.99;80.71;100852.38;5003706;28;20421;-76
2022/11/30 10:59:46;;;;;;;16.05;10.85;;;;;;;9.99;80.65;100847.78;5016267;28;20416;-76
2022/11/30 11:02:33;;;;;;;16.35;11.40;;;;;;;10.04;80.58;100847.94;5010662;28;20400;-76
2022/11/30 11:05:14;;;;;;;18.48;12.25;;;;;;;10.05;80.47;100849.56;5014295;28;20395;-76
2022/11/30 11:08:00;;;;;;;19.77;12.90;;;;;;;10.07;80.41;100842.06;5011095;28;20820;-76
2022/11/30 11:10:43;;;;;;;18.23;11.57;;;;;;;10.13;80.10;100840.28;5001606;28;20411;-76
2022/11/30 11:13:33;;;;;;;17.70;11.73;;;;;;;10.18;80.13;100843.13;5010371;28;20473;-76
2022/11/30 11:16:00;;;;;;;16.35;12.15;;;;;;;10.21;79.95;100840.78;4999494;28;20417;-76
2022/11/30 11:18:27;;;;;;;17.70;12.52;;;;;;;10.26;80.02;100837.41;5002279;28;20426;-76
2022/11/30 11:21:01;;;;;;;18.85;12.50;;;;;;;10.35;79.67;100844.94;5012526;28;20797;-76
2022/11/30 11:23:32;;;;;;;16.27;11.10;;;;;;;10.44;79.80;100836.47;5001324;28;20456;-76
2022/11/30 11:25:58;;;;;;;13.85;11.18;;;;;;;10.52;79.31;100834.25;5008689;28;20882;-77